Time;durP1;ratioP1;P1;durP2;ratioP2;P2;SDS_P1;SDS_P2;PMS_P1;PMS_P2;Temp;Humidity;BMP_temperature;BMP_pressure;BME280_temperature;BME280_humidity;BME280_pressure;Samples;Min_cycle;Max_cycle;Signal;HPM_P1;HPM_P2
2022/02/07 00:08:14;;;;;;;26.42;3.42;;;;;;;3.19;100.00;100638.41;10459717;28;20493;-54
2022/02/07 00:13:16;;;;;;;10.02;2.30;;;;;;;3.25;100.00;100646.00;10458470;28;20412;-52
2022/02/07 00:18:19;;;;;;;19.08;3.47;;;;;;;3.24;100.00;100657.25;10459359;28;20052;-55
2022/02/07 00:23:21;;;;;;;15.52;3.00;;;;;;;3.30;100.00;100660.50;10459212;28;20044;-53
2022/02/07 00:28:24;;;;;;;18.90;2.92;;;;;;;3.32;100.00;100676.81;10459055;28;20049;-55
2022/02/07 00:33:26;;;;;;;15.60;3.42;;;;;;;3.29;100.00;100710.53;10459061;28;20057;-55
2022/02/07 00:38:29;;;;;;;15.98;2.65;;;;;;;3.48;100.00;100754.00;10458788;28;20060;-55
2022/02/07 00:43:39;;;;;;;11.50;2.50;;;;;;;3.39;100.00;100768.06;10457236;28;20135;-54
2022/02/07 00:48:42;;;;;;;14.98;2.13;;;;;;;3.24;100.00;100771.09;10458327;28;20041;-57
2022/02/07 00:53:44;;;;;;;16.15;2.78;;;;;;;3.25;100.00;100776.22;10458561;28;20053;-57
2022/02/07 00:58:46;;;;;;;19.63;3.40;;;;;;;3.05;100.00;100802.63;10457178;28;20063;-52
2022/02/07 01:03:49;;;;;;;20.17;4.03;;;;;;;3.04;100.00;100815.59;10457249;28;20060;-56
2022/02/07 01:09:04;;;;;;;20.35;2.75;;;;;;;3.11;100.00;100868.88;10457581;28;20057;-55
2022/02/07 01:14:30;;;;;;;12.25;2.40;;;;;;;2.66;100.00;100861.38;10457424;28;20049;-53
2022/02/07 01:51:24;;;;;;;12.57;1.77;;;;;;;2.59;100.00;100975.25;10456633;28;20052;-54
2022/02/07 01:56:29;;;;;;;7.18;1.55;;;;;;;2.55;100.00;100989.09;10456300;28;20045;-57
2022/02/07 02:01:33;;;;;;;16.67;1.92;;;;;;;2.55;100.00;101016.69;10456652;28;20049;-57
2022/02/07 02:06:37;;;;;;;9.20;2.78;;;;;;;2.49;100.00;101029.72;10457794;28;20063;-56
2022/02/07 02:11:42;;;;;;;13.00;2.25;;;;;;;2.54;100.00;101046.00;10464623;28;20057;-54
2022/02/07 02:37:57;;;;;;;13.38;2.10;;;;;;;2.39;100.00;101116.94;10463692;28;20404;-56
2022/02/07 02:48:23;;;;;;;17.40;4.07;;;;;;;2.60;100.00;101146.69;10463136;28;20045;-57
2022/02/07 02:53:26;;;;;;;15.20;3.42;;;;;;;2.69;100.00;101156.00;10462992;28;20064;-54
2022/02/07 02:58:28;;;;;;;16.20;2.55;;;;;;;2.81;100.00;101167.84;10463003;28;20056;-55
2022/02/07 03:03:31;;;;;;;9.55;2.05;;;;;;;2.69;100.00;101193.09;10461227;28;20049;-54
2022/02/07 03:08:33;;;;;;;12.70;2.25;;;;;;;2.62;100.00;101204.41;10462306;28;20056;-56
2022/02/07 03:18:49;;;;;;;19.63;4.13;;;;;;;2.64;100.00;101225.06;10461388;28;20040;-51
2022/02/07 03:23:52;;;;;;;22.77;3.58;;;;;;;2.72;100.00;101241.28;10461466;28;20053;-53
2022/02/07 03:28:54;;;;;;;23.70;4.90;;;;;;;2.84;100.00;101269.53;10460209;28;20049;-55
2022/02/07 03:33:57;;;;;;;13.70;3.00;;;;;;;2.84;100.00;101279.00;10460614;28;20053;-56
2022/02/07 03:39:00;;;;;;;16.10;3.08;;;;;;;2.84;100.00;101294.53;10461466;28;20128;-54
2022/02/07 03:44:03;;;;;;;17.65;3.45;;;;;;;2.79;100.00;101303.22;10460757;28;20419;-52
2022/02/07 03:49:05;;;;;;;29.80;4.68;;;;;;;2.92;100.00;101327.13;10460753;28;20049;-55
2022/02/07 03:54:08;;;;;;;15.55;4.47;;;;;;;2.79;100.00;101339.44;10460351;28;20060;-54
2022/02/07 03:59:10;;;;;;;21.27;4.18;;;;;;;2.98;100.00;101347.72;10460321;28;20049;-55
2022/02/07 04:04:13;;;;;;;17.52;3.60;;;;;;;3.19;100.00;101374.09;10460224;28;20084;-56
2022/02/07 04:09:20;;;;;;;14.60;2.83;;;;;;;3.33;100.00;101361.78;10460119;28;20052;-56
2022/02/07 04:14:24;;;;;;;27.27;4.03;;;;;;;3.32;100.00;101385.09;10459639;28;20413;-57
2022/02/07 04:19:34;;;;;;;18.75;3.88;;;;;;;3.50;100.00;101409.81;10459387;28;20063;-53
2022/02/07 04:24:37;;;;;;;16.15;3.13;;;;;;;3.50;100.00;101418.44;10459543;28;20061;-54
2022/02/07 04:29:39;;;;;;;18.25;3.22;;;;;;;3.57;99.24;101426.09;10458052;28;20045;-52
2022/02/07 04:34:41;;;;;;;21.65;4.97;;;;;;;3.76;96.49;101440.41;10458724;28;20390;-52
2022/02/07 04:39:43;;;;;;;19.17;3.55;;;;;;;3.66;97.33;101457.00;10458532;28;20049;-54
2022/02/07 04:45:03;;;;;;;19.27;3.63;;;;;;;3.90;94.25;101484.16;10458637;28;20057;-53
2022/02/07 05:15:50;;;;;;;21.10;3.42;;;;;;;4.03;95.31;101581.53;10457471;28;20041;-57
2022/02/07 05:20:52;;;;;;;26.77;4.45;;;;;;;4.08;94.77;101586.63;10457006;28;20405;-55
2022/02/07 05:25:54;;;;;;;24.73;5.60;;;;;;;4.05;95.96;101608.28;10456984;28;20503;-55
2022/02/07 05:30:57;;;;;;;24.85;3.70;;;;;;;4.16;95.90;101607.25;10456742;28;20374;-53
2022/02/07 05:35:59;;;;;;;22.52;4.22;;;;;;;4.11;96.50;101625.47;10457012;28;20055;-55
2022/02/07 05:41:03;;;;;;;19.83;2.95;;;;;;;4.23;95.47;101638.19;10456240;28;20045;-53
2022/02/07 05:46:06;;;;;;;22.73;3.20;;;;;;;4.34;95.09;101648.41;10456383;28;20053;-55
2022/02/07 05:51:08;;;;;;;20.60;3.08;;;;;;;4.33;95.38;101664.81;10456469;28;20063;-55
2022/02/07 05:56:10;;;;;;;21.35;3.90;;;;;;;4.27;95.38;101662.38;10456286;28;20520;-55
2022/02/07 06:01:13;;;;;;;14.88;3.65;;;;;;;4.11;95.85;101674.72;10456056;28;20136;-55
2022/02/07 06:06:15;;;;;;;19.50;5.10;;;;;;;4.16;95.88;101687.59;10456228;28;20402;-56
2022/02/07 06:11:17;;;;;;;23.50;4.20;;;;;;;3.99;97.41;101699.09;10455924;28;20497;-55
2022/02/07 06:16:20;;;;;;;18.90;3.40;;;;;;;4.01;97.50;101714.63;10455906;28;20056;-52
2022/02/07 06:21:23;;;;;;;23.27;4.38;;;;;;;3.97;98.33;101713.81;10455619;28;20045;-53
2022/02/07 06:26:25;;;;;;;12.70;3.22;;;;;;;3.90;99.50;101727.72;10455732;28;20397;-56
2022/02/07 06:31:28;;;;;;;21.02;3.55;;;;;;;3.86;100.00;101758.00;10455708;28;20052;-58
2022/02/07 06:36:30;;;;;;;17.85;3.00;;;;;;;3.84;100.00;101775.28;10455236;28;20049;-57
2022/02/07 06:41:33;;;;;;;19.75;4.30;;;;;;;3.84;100.00;101783.06;10455159;28;20481;-52
2022/02/07 06:46:35;;;;;;;19.25;3.72;;;;;;;3.84;100.00;101800.34;10455969;28;20053;-57
2022/02/07 06:51:37;;;;;;;20.67;4.38;;;;;;;3.69;100.00;101814.34;10455270;28;20407;-55
2022/02/07 06:56:40;;;;;;;24.27;5.05;;;;;;;3.75;100.00;101824.66;10461403;28;20051;-57
2022/02/07 07:01:44;;;;;;;28.15;5.80;;;;;;;3.69;100.00;101829.91;10462567;28;20041;-55
2022/02/07 07:06:46;;;;;;;21.65;4.32;;;;;;;3.78;100.00;101844.47;10462233;28;20051;-56
2022/02/07 07:11:49;;;;;;;26.58;4.60;;;;;;;3.70;100.00;101844.56;10461821;28;20504;-54
2022/02/07 07:16:51;;;;;;;21.95;4.20;;;;;;;3.76;100.00;101851.41;10462130;28;20049;-56
2022/02/07 07:21:54;;;;;;;17.30;3.03;;;;;;;3.77;100.00;101868.69;10461589;28;20048;-56
2022/02/07 07:26:56;;;;;;;34.67;5.00;;;;;;;3.61;100.00;101875.75;10461722;28;20049;-54
2022/02/07 07:32:02;;;;;;;28.45;4.53;;;;;;;3.72;100.00;101889.44;10461733;28;20045;-57
2022/02/07 07:37:05;;;;;;;22.80;4.22;;;;;;;3.79;100.00;101936.88;10461296;28;20051;-53
2022/02/07 07:42:10;;;;;;;24.20;3.58;;;;;;;3.77;100.00;101957.59;10460956;28;20071;-54
2022/02/07 07:47:17;;;;;;;24.63;3.92;;;;;;;3.70;100.00;101974.94;10460627;28;20382;-53
2022/02/07 07:52:30;;;;;;;24.42;4.18;;;;;;;3.84;100.00;101986.91;10461154;28;20045;-56
2022/02/07 08:02:54;;;;;;;21.95;5.13;;;;;;;3.92;100.00;102000.63;10459931;28;20056;-53
2022/02/07 08:08:07;;;;;;;25.75;3.95;;;;;;;4.69;99.53;102022.19;10458967;28;20049;-57
2022/02/07 08:13:15;;;;;;;20.05;4.78;;;;;;;4.83;98.62;102041.88;10460324;28;20044;-56
2022/02/07 08:18:18;;;;;;;32.95;5.68;;;;;;;4.32;100.00;102051.16;10459659;28;20049;-53
2022/02/07 08:23:20;;;;;;;16.45;4.28;;;;;;;4.66;100.00;102072.41;10459258;28;20505;-56
2022/02/07 08:28:23;;;;;;;26.65;4.32;;;;;;;5.07;98.56;102059.75;10459018;28;20437;-55
2022/02/07 08:33:26;;;;;;;14.95;3.90;;;;;;;5.30;95.91;102064.59;10458959;28;20057;-53
2022/02/07 08:38:29;;;;;;;18.17;3.33;;;;;;;5.54;95.50;102068.56;10458633;28;20056;-55
2022/02/07 08:43:31;;;;;;;23.85;4.60;;;;;;;5.67;92.33;102077.88;10457126;28;20084;-52
2022/02/07 08:48:34;;;;;;;21.33;3.65;;;;;;;5.99;93.56;102083.44;10458252;28;20055;-55
2022/02/07 08:53:41;;;;;;;19.80;4.40;;;;;;;6.68;91.26;102093.38;10458457;28;20057;-57
2022/02/07 08:58:46;;;;;;;22.23;4.20;;;;;;;6.82;90.52;102087.88;10458083;28;20099;-50
2022/02/07 09:14:20;;;;;;;28.98;5.18;;;;;;;8.08;84.33;102141.44;10457737;28;20059;-55
2022/02/07 09:19:24;;;;;;;20.45;5.05;;;;;;;8.20;87.55;102148.09;10456395;28;20045;-56
2022/02/07 09:24:26;;;;;;;19.48;4.40;;;;;;;7.76;83.77;102155.28;10457150;28;20052;-53
2022/02/07 09:29:29;;;;;;;29.05;5.05;;;;;;;8.37;84.38;102156.34;10457071;28;20068;-56
2022/02/07 09:34:32;;;;;;;24.48;5.20;;;;;;;8.53;81.32;102162.03;10456374;28;20064;-55
2022/02/07 09:39:35;;;;;;;21.73;4.40;;;;;;;9.57;78.63;102183.44;10456747;28;20049;-55
2022/02/07 09:44:44;;;;;;;15.25;3.42;;;;;;;10.56;75.68;102180.22;10456300;28;20057;-56
2022/02/07 09:49:47;;;;;;;19.23;4.55;;;;;;;9.58;77.36;102200.84;10456769;28;20055;-57
2022/02/07 09:54:49;;;;;;;23.13;4.07;;;;;;;10.09;79.75;102217.53;10456144;28;20375;-55
2022/02/07 09:59:53;;;;;;;22.70;5.28;;;;;;;10.22;76.15;102231.94;10457050;28;20052;-58
2022/02/07 10:04:59;;;;;;;24.40;5.10;;;;;;;10.28;74.78;102248.34;10455859;28;20132;-57
2022/02/07 10:15:53;;;;;;;24.48;4.93;;;;;;;10.57;71.32;102271.84;10456746;28;20060;-58
2022/02/07 10:47:38;;;;;;;17.75;3.78;;;;;;;9.17;79.33;102311.84;10461664;28;20055;-57
2022/02/07 10:52:52;;;;;;;17.85;3.83;;;;;;;8.92;78.91;102329.00;10463279;28;20055;-58
2022/02/07 10:57:58;;;;;;;18.48;4.60;;;;;;;9.18;76.09;102330.09;10462003;28;20047;-58
2022/02/07 11:03:17;;;;;;;17.02;3.45;;;;;;;10.97;67.53;102324.63;10462609;28;20051;-56
2022/02/07 11:08:35;;;;;;;18.27;3.63;;;;;;;9.83;74.00;102329.13;10463154;28;20045;-57
2022/02/07 11:14:00;;;;;;;16.00;3.28;;;;;;;9.78;75.19;102336.22;10462292;28;20053;-56
2022/02/07 11:24:49;;;;;;;17.27;4.18;;;;;;;12.43;61.03;102323.53;10460931;28;20052;-58
2022/02/07 11:30:14;;;;;;;21.35;4.95;;;;;;;12.47;60.60;102338.25;10461979;28;20049;-59
2022/02/07 11:35:28;;;;;;;14.95;3.17;;;;;;;11.02;66.60;102338.41;10461171;28;20536;-58
2022/02/07 11:40:37;;;;;;;13.20;3.80;;;;;;;11.94;68.14;102338.63;10460584;28;20493;-56
2022/02/07 11:45:49;;;;;;;14.90;3.83;;;;;;;13.60;63.56;102347.47;10461716;28;20076;-57
2022/02/07 11:50:55;;;;;;;9.60;2.70;;;;;;;14.10;55.47;102333.75;10461003;28;20064;-58
2022/02/07 11:56:31;;;;;;;12.18;3.47;;;;;;;12.36;66.17;102357.09;10461099;28;20063;-58
2022/02/07 12:02:01;;;;;;;14.27;2.72;;;;;;;9.51;68.53;102365.78;10456320;28;20053;-59
2022/02/07 12:07:21;;;;;;;17.17;3.17;;;;;;;9.33;68.93;102369.75;10460737;28;20072;-55
2022/02/07 12:12:44;;;;;;;14.13;3.15;;;;;;;10.14;68.69;102356.97;10459924;28;20076;-58
2022/02/07 12:17:50;;;;;;;11.20;2.15;;;;;;;9.88;69.38;102364.72;10459966;28;20051;-56
2022/02/07 12:22:55;;;;;;;12.88;2.35;;;;;;;9.37;72.71;102359.19;10459447;28;20051;-57
2022/02/07 12:28:02;;;;;;;16.20;3.05;;;;;;;9.40;72.56;102368.72;10459406;28;20056;-53
2022/02/07 12:33:05;;;;;;;18.20;3.03;;;;;;;9.17;72.80;102383.22;10458011;28;20056;-55
2022/02/07 12:38:28;;;;;;;13.45;3.28;;;;;;;8.92;73.88;102383.00;10459352;28;20048;-54
2022/02/07 12:43:34;;;;;;;10.40;2.28;;;;;;;8.00;76.82;102389.44;10458345;28;20505;-56
2022/02/07 12:48:38;;;;;;;9.60;2.30;;;;;;;8.15;76.51;102408.25;10459186;28;20045;-57
2022/02/07 12:53:41;;;;;;;9.90;1.70;;;;;;;7.88;73.86;102413.16;10457597;28;20056;-51
2022/02/07 12:58:44;;;;;;;14.13;2.60;;;;;;;8.44;73.67;102432.88;10458417;28;20051;-56
2022/02/07 13:04:00;;;;;;;12.57;2.80;;;;;;;8.19;73.87;102434.25;10458099;28;20045;-55
2022/02/07 13:09:12;;;;;;;13.95;3.38;;;;;;;7.69;73.29;102430.06;10458275;28;20049;-58
2022/02/07 13:14:16;;;;;;;13.35;2.83;;;;;;;8.35;74.96;102439.13;10457749;28;20045;-56
2022/02/07 13:19:22;;;;;;;15.65;2.15;;;;;;;8.08;73.30;102441.44;10456004;28;20049;-55
2022/02/07 13:24:27;;;;;;;15.43;2.35;;;;;;;8.17;72.90;102461.28;10457051;28;20053;-55
2022/02/07 13:29:34;;;;;;;15.63;3.25;;;;;;;8.38;71.96;102471.25;10455926;28;20083;-56
2022/02/07 13:34:38;;;;;;;8.73;2.40;;;;;;;8.17;71.43;102477.78;10456811;28;20127;-55
2022/02/07 13:40:12;;;;;;;11.00;2.53;;;;;;;7.84;71.34;102475.84;10456950;28;20045;-56
2022/02/07 13:45:21;;;;;;;14.73;3.30;;;;;;;7.61;73.56;102479.72;10451259;28;20060;-55
2022/02/07 13:50:27;;;;;;;11.95;2.92;;;;;;;8.52;73.14;102481.44;10456624;28;20060;-55
2022/02/07 13:55:41;;;;;;;8.98;2.38;;;;;;;8.16;74.98;102473.44;10456525;28;20075;-55
2022/02/07 14:00:49;;;;;;;13.50;1.95;;;;;;;8.45;71.87;102460.72;10456317;28;20508;-55
2022/02/07 14:06:07;;;;;;;17.73;4.00;;;;;;;7.99;71.26;102473.78;10463824;28;20049;-59
2022/02/07 14:11:14;;;;;;;11.85;2.38;;;;;;;8.09;75.07;102484.91;10464785;28;20056;-58
2022/02/07 14:16:22;;;;;;;11.90;2.10;;;;;;;8.40;74.64;102475.56;10464347;28;20501;-54
2022/02/07 14:21:26;;;;;;;14.35;2.30;;;;;;;8.58;71.24;102480.44;10464971;28;20051;-51
2022/02/07 14:26:36;;;;;;;13.23;2.42;;;;;;;10.64;64.86;102482.03;10463830;28;20075;-56
2022/02/07 14:31:39;;;;;;;11.80;2.90;;;;;;;7.96;72.35;102493.84;10463938;28;20481;-55
2022/02/07 14:36:41;;;;;;;8.40;2.47;;;;;;;7.76;71.72;102481.19;10463800;28;20045;-56
2022/02/07 14:41:46;;;;;;;10.25;2.00;;;;;;;7.74;73.74;102490.78;10463416;28;20049;-54
2022/02/07 14:46:54;;;;;;;8.50;1.92;;;;;;;7.85;73.88;102504.50;10463115;28;20497;-57
2022/02/07 14:51:59;;;;;;;9.65;1.95;;;;;;;7.34;74.41;102507.97;10463070;28;20044;-56
2022/02/07 14:57:02;;;;;;;13.07;1.90;;;;;;;7.05;73.25;102514.50;10463020;28;20045;-53
2022/02/07 15:02:04;;;;;;;9.25;2.00;;;;;;;7.38;74.21;102527.91;10461325;28;20052;-55
2022/02/07 15:07:07;;;;;;;9.95;1.65;;;;;;;7.25;73.20;102531.59;10462550;28;20072;-56
2022/02/07 15:12:09;;;;;;;10.40;2.42;;;;;;;7.26;72.91;102530.69;10462132;28;20409;-57
2022/02/07 15:17:11;;;;;;;10.98;2.35;;;;;;;7.00;75.36;102538.91;10461201;28;20076;-53
2022/02/07 15:22:15;;;;;;;22.92;2.45;;;;;;;6.69;76.20;102539.31;10462208;28;20060;-54
2022/02/07 15:27:18;;;;;;;7.07;2.30;;;;;;;6.72;77.40;102549.69;10461817;28;20049;-55
2022/02/07 15:32:27;;;;;;;10.75;2.58;;;;;;;6.47;77.60;102538.72;10461481;28;20056;-57
2022/02/07 15:37:32;;;;;;;11.90;2.42;;;;;;;6.56;79.29;102550.78;10462147;28;20045;-55
2022/02/07 15:42:34;;;;;;;11.85;2.03;;;;;;;6.51;77.78;102549.09;10460773;28;20049;-54
2022/02/07 15:47:40;;;;;;;8.23;2.15;;;;;;;6.46;75.92;102550.88;10461568;28;20057;-57
2022/02/07 15:52:43;;;;;;;11.65;2.25;;;;;;;6.28;76.33;102536.34;10461129;28;20051;-57
2022/02/07 15:57:45;;;;;;;8.05;2.03;;;;;;;6.55;79.97;102536.06;10460831;28;20103;-54
2022/02/07 16:02:50;;;;;;;10.40;1.80;;;;;;;6.53;78.17;102532.63;10460177;28;20127;-56
2022/02/07 16:08:00;;;;;;;8.40;2.78;;;;;;;6.29;79.45;102543.28;10460151;28;20509;-57
2022/02/07 16:13:16;;;;;;;9.50;1.63;;;;;;;6.00;79.59;102541.03;10460520;28;20060;-57
2022/02/07 16:18:20;;;;;;;5.15;1.30;;;;;;;6.00;78.05;102543.63;10460034;28;20049;-57
2022/02/07 16:23:22;;;;;;;8.65;2.10;;;;;;;6.01;80.34;102560.94;10459376;28;20123;-56
2022/02/07 16:28:25;;;;;;;9.15;2.67;;;;;;;5.88;79.10;102556.69;10459222;28;20449;-53
2022/02/07 16:33:28;;;;;;;13.05;2.05;;;;;;;5.88;77.77;102556.69;10459399;28;20084;-56
2022/02/07 16:38:30;;;;;;;9.77;1.58;;;;;;;5.73;78.58;102568.97;10459036;28;20064;-54
2022/02/07 16:43:37;;;;;;;11.00;1.42;;;;;;;5.65;76.63;102565.56;10458703;28;20401;-57
2022/02/07 16:48:40;;;;;;;4.90;1.38;;;;;;;5.68;76.55;102567.25;10458571;28;20408;-56
2022/02/07 16:53:42;;;;;;;8.38;2.15;;;;;;;5.63;76.30;102579.44;10458363;28;20068;-55
2022/02/07 16:58:45;;;;;;;7.70;1.60;;;;;;;5.51;75.23;102547.47;10458004;28;20505;-58
2022/02/07 17:03:48;;;;;;;12.13;2.00;;;;;;;5.54;78.12;102557.00;10457761;28;20045;-57
2022/02/07 17:08:51;;;;;;;9.25;1.73;;;;;;;5.40;75.88;102557.97;10457874;28;20059;-54
2022/02/07 17:13:53;;;;;;;6.00;1.77;;;;;;;5.62;77.24;102568.19;10457357;28;20056;-54
2022/02/07 17:18:57;;;;;;;6.13;1.80;;;;;;;5.49;77.36;102576.94;10457545;28;20111;-54
2022/02/07 17:24:00;;;;;;;9.73;1.65;;;;;;;5.50;78.22;102579.53;10457629;28;20057;-53
2022/02/07 17:29:03;;;;;;;7.32;1.92;;;;;;;5.41;78.63;102584.78;10457188;28;20051;-54
2022/02/07 17:34:06;;;;;;;6.30;1.45;;;;;;;5.48;80.93;102583.00;10456817;28;20474;-52
2022/02/07 17:39:08;;;;;;;7.50;1.85;;;;;;;5.37;81.88;102573.56;10456243;28;20489;-55
2022/02/07 17:44:11;;;;;;;8.10;1.92;;;;;;;5.36;81.19;102573.56;10456553;28;20057;-53
2022/02/07 17:49:15;;;;;;;9.32;2.30;;;;;;;5.29;82.95;102583.13;10456603;28;20063;-53
2022/02/07 17:54:21;;;;;;;4.75;1.63;;;;;;;5.47;83.29;102586.50;10456316;28;20056;-54
2022/02/07 17:59:23;;;;;;;6.32;1.65;;;;;;;5.37;81.15;102585.69;10456523;28;20051;-55
2022/02/07 18:04:26;;;;;;;4.88;1.38;;;;;;;5.35;83.11;102587.44;10456233;28;20056;-53
2022/02/07 18:09:28;;;;;;;3.97;1.30;;;;;;;5.28;80.89;102584.03;10456122;28;20393;-54
2022/02/07 18:14:32;;;;;;;7.43;1.52;;;;;;;5.36;78.81;102579.66;10456240;28;20053;-56
2022/02/07 18:19:38;;;;;;;8.45;2.78;;;;;;;5.18;78.54;102583.22;10455879;28;20060;-54
2022/02/07 18:24:40;;;;;;;14.68;1.63;;;;;;;5.17;78.22;102589.28;10455950;28;20140;-52
2022/02/07 18:29:52;;;;;;;10.63;1.77;;;;;;;5.18;78.76;102595.34;10456109;28;20053;-54
2022/02/07 18:34:54;;;;;;;;;;;;;;;5.27;78.57;102597.88;10456949;28;20084;-55
2022/02/07 18:39:57;;;;;;;;;;;;;;;5.14;79.67;102593.63;10456125;28;19921;-55
2022/02/07 18:45:04;;;;;;;7.40;2.15;;;;;;;5.28;78.66;102589.22;10455563;28;19924;-52
2022/02/07 18:50:07;;;;;;;5.47;2.53;;;;;;;5.07;78.72;102591.94;10457899;28;20052;-56
2022/02/07 18:55:09;;;;;;;7.63;1.60;;;;;;;5.05;79.06;102593.69;10463284;28;20059;-54
2022/02/07 19:00:16;;;;;;;4.93;1.85;;;;;;;5.09;78.50;102583.25;10462910;28;20049;-56
2022/02/07 19:10:24;;;;;;;8.45;2.15;;;;;;;5.12;79.36;102580.66;10462753;28;20053;-55
2022/02/07 19:15:31;;;;;;;8.88;2.20;;;;;;;4.98;78.47;102583.34;10462271;28;20098;-54
2022/02/07 19:20:36;;;;;;;7.07;2.10;;;;;;;5.00;80.63;102585.94;10462097;28;20421;-54
2022/02/07 19:26:27;;;;;;;5.05;1.88;;;;;;;5.09;81.21;102593.66;10461804;28;20045;-53
2022/02/07 19:31:18;;;;;;;6.88;2.78;;;;;;;5.12;82.02;102583.25;10461017;28;20436;-53
2022/02/07 19:36:21;;;;;;;8.23;2.20;;;;;;;5.14;81.45;102588.44;10461495;28;20052;-56
2022/02/07 19:41:32;;;;;;;6.38;1.85;;;;;;;5.17;81.58;102584.09;10461417;28;20048;-55
2022/02/07 19:46:36;;;;;;;7.15;2.05;;;;;;;5.16;82.44;102582.38;10460726;28;20060;-54
2022/02/07 19:51:38;;;;;;;15.65;2.53;;;;;;;5.00;82.99;102581.59;10460801;28;20051;-52
2022/02/07 19:56:40;;;;;;;6.78;2.47;;;;;;;4.84;82.84;102587.72;10443148;28;20135;-56
2022/02/07 20:01:45;;;;;;;7.10;2.00;;;;;;;5.02;84.02;102586.78;10460173;28;20480;-56
2022/02/07 20:06:49;;;;;;;4.38;2.20;;;;;;;5.00;83.71;102588.53;10460224;28;20409;-56
2022/02/07 20:12:13;;;;;;;7.28;2.08;;;;;;;4.88;84.18;102584.25;10460158;28;20052;-53
2022/02/07 20:17:16;;;;;;;11.88;2.55;;;;;;;4.38;86.25;102588.75;10460714;28;20102;-53
2022/02/07 20:22:21;;;;;;;7.15;3.05;;;;;;;4.60;88.03;102583.50;10459685;28;20049;-55
2022/02/07 20:27:25;;;;;;;7.40;2.15;;;;;;;4.67;87.49;102592.13;10459546;28;20052;-53
2022/02/07 20:32:28;;;;;;;7.25;2.80;;;;;;;4.42;87.68;102580.13;10459269;28;20051;-53
2022/02/07 20:37:32;;;;;;;8.00;2.88;;;;;;;4.56;87.10;102572.28;10458919;28;20052;-55
2022/02/07 20:42:39;;;;;;;13.38;3.28;;;;;;;3.95;89.44;102577.63;10458697;28;20048;-54
2022/02/07 20:47:44;;;;;;;9.27;3.35;;;;;;;3.89;90.83;102579.34;10458561;28;20064;-53
2022/02/07 20:52:47;;;;;;;9.35;3.10;;;;;;;4.05;90.44;102581.91;10458396;28;20490;-52
2022/02/07 20:57:49;;;;;;;11.50;2.75;;;;;;;4.07;90.81;102583.66;10458376;28;20060;-54
2022/02/07 21:03:12;;;;;;;10.90;2.75;;;;;;;4.05;89.66;102572.44;10458000;28;20057;-55
2022/02/07 21:08:17;;;;;;;11.85;3.00;;;;;;;4.15;91.76;102575.84;10457921;28;20049;-52
2022/02/07 21:13:19;;;;;;;9.88;3.40;;;;;;;4.49;87.99;102575.78;10457006;28;20127;-52
2022/02/07 21:18:22;;;;;;;12.98;3.75;;;;;;;4.46;88.24;102581.81;10457152;28;20123;-54
2022/02/07 21:23:24;;;;;;;9.68;3.28;;;;;;;4.58;86.62;102575.72;10457117;28;20405;-55
2022/02/07 21:28:26;;;;;;;10.35;3.38;;;;;;;4.61;88.14;102580.91;10457093;28;20417;-54
2022/02/07 21:33:31;;;;;;;17.80;4.05;;;;;;;4.74;86.52;102578.25;10456886;28;20048;-54
2022/02/07 21:38:35;;;;;;;8.35;2.70;;;;;;;4.82;87.15;102576.50;10456767;28;20052;-50
2022/02/07 21:43:37;;;;;;;10.93;3.63;;;;;;;4.87;87.75;102573.88;10456473;28;20128;-54
2022/02/07 21:48:40;;;;;;;10.68;3.45;;;;;;;4.88;87.80;102580.81;10455360;28;20060;-54
2022/02/07 21:53:43;;;;;;;13.65;3.67;;;;;;;5.00;87.86;102567.75;10456580;28;20053;-52
2022/02/07 21:58:45;;;;;;;12.60;3.65;;;;;;;5.11;86.74;102568.56;10456308;28;20076;-56
2022/02/07 22:03:47;;;;;;;12.38;3.90;;;;;;;5.03;86.81;102581.56;10456170;28;20439;-55
2022/02/07 22:08:52;;;;;;;14.18;4.18;;;;;;;5.09;87.03;102572.88;10456309;28;20053;-51
2022/02/07 22:13:54;;;;;;;13.23;3.63;;;;;;;5.15;87.50;102565.06;10456272;28;20056;-52
2022/02/07 22:18:57;;;;;;;17.92;4.32;;;;;;;5.11;88.45;102565.97;10456590;28;20075;-54
2022/02/07 22:24:00;;;;;;;11.65;4.10;;;;;;;5.21;88.27;102545.97;10458421;28;20057;-54
2022/02/07 22:29:06;;;;;;;18.42;3.45;;;;;;;5.09;89.96;102549.50;10464147;28;20048;-56
2022/02/07 22:39:23;;;;;;;14.55;3.95;;;;;;;5.20;89.93;102549.47;10463744;28;20044;-53
2022/02/07 22:44:26;;;;;;;10.73;3.78;;;;;;;5.26;90.47;102554.63;10462592;28;20049;-57
2022/02/07 22:49:28;;;;;;;18.85;4.25;;;;;;;5.27;91.52;102547.69;10462365;28;20484;-51
2022/02/07 22:54:31;;;;;;;15.32;3.22;;;;;;;5.39;90.97;102545.84;10463649;28;20059;-53
2022/02/07 22:59:33;;;;;;;20.42;5.15;;;;;;;5.34;91.14;102533.78;10462949;28;20401;-54
2022/02/07 23:04:38;;;;;;;15.85;3.17;;;;;;;5.27;92.82;102527.75;10461409;28;20055;-55
2022/02/07 23:20:22;;;;;;;27.13;5.45;;;;;;;5.18;96.11;102531.28;10462333;28;20076;-55
2022/02/07 23:36:15;;;;;;;14.23;4.57;;;;;;;5.33;96.39;102519.03;10459578;28;20059;-51
2022/02/07 23:46:25;;;;;;;8.70;3.55;;;;;;;5.36;97.95;102500.84;10461147;28;20061;-54
2022/02/07 23:51:37;;;;;;;14.07;5.03;;;;;;;5.36;98.87;102506.03;10461016;28;20048;-54
